Time;durP1;ratioP1;P1;durP2;ratioP2;P2;SDS_P1;SDS_P2;PMS_P1;PMS_P2;Temp;Humidity;BMP_temperature;BMP_pressure;BME280_temperature;BME280_humidity;BME280_pressure;Samples;Min_cycle;Max_cycle;Signal;HPM_P1;HPM_P2
2021/09/06 00:00:14;;;;;;;0.40;0.20;;;;;;;15.78;100.00;100759.53;5055205;28;20471;-50
2021/09/06 00:02:42;;;;;;;0.43;0.30;;;;;;;15.80;100.00;100763.00;5037629;28;20484;-49
2021/09/06 00:05:11;;;;;;;0.40;0.37;;;;;;;15.65;100.00;100759.16;5055063;28;20447;-50
2021/09/06 00:07:39;;;;;;;0.40;0.30;;;;;;;15.53;100.00;100765.88;5054999;28;20450;-49
2021/09/06 00:10:31;;;;;;;1.23;1.07;;;;;;;15.56;100.00;100773.78;5054918;28;20528;-50
2021/09/06 00:12:58;;;;;;;0.80;0.60;;;;;;;15.60;100.00;100775.41;5053962;28;20443;-50
2021/09/06 00:15:26;;;;;;;0.40;0.30;;;;;;;15.58;100.00;100771.03;5048570;28;20493;-50
2021/09/06 00:17:53;;;;;;;0.40;0.30;;;;;;;15.47;100.00;100778.63;5054679;28;20454;-50
2021/09/06 00:20:22;;;;;;;0.60;0.60;;;;;;;15.64;100.00;100771.69;5046145;28;20899;-50
2021/09/06 00:22:49;;;;;;;0.50;0.40;;;;;;;15.63;100.00;100772.63;5050775;28;20955;-50
2021/09/06 00:25:16;;;;;;;0.40;0.20;;;;;;;15.38;100.00;100767.38;5054839;28;20447;-50
2021/09/06 00:27:43;;;;;;;0.50;0.40;;;;;;;15.37;100.00;100765.63;5053776;28;20836;-50
2021/09/06 00:30:10;;;;;;;0.40;0.30;;;;;;;15.39;100.00;100776.28;5054342;28;20669;-50
2021/09/06 00:32:37;;;;;;;0.50;0.50;;;;;;;15.39;100.00;100770.94;5054286;28;20880;-50
2021/09/06 00:35:05;;;;;;;0.50;0.40;;;;;;;15.40;100.00;100767.31;5054468;28;20738;-51
2021/09/06 00:37:33;;;;;;;0.40;0.20;;;;;;;15.45;100.00;100773.34;5036733;28;20490;-50
2021/09/06 00:40:00;;;;;;;0.40;0.30;;;;;;;15.30;100.00;100774.84;5054267;28;20462;-50
2021/09/06 00:42:27;;;;;;;7.00;1.00;;;;;;;15.49;100.00;100775.00;5054211;28;20505;-50
2021/09/06 00:44:54;;;;;;;1.10;1.07;;;;;;;15.46;100.00;100769.72;5053749;28;20454;-50
2021/09/06 00:47:21;;;;;;;2.60;1.13;;;;;;;15.25;100.00;100776.84;5054303;28;20451;-50
2021/09/06 00:49:48;;;;;;;1.20;1.10;;;;;;;15.44;100.00;100776.09;5054000;28;20490;-50
2021/09/06 00:52:15;;;;;;;0.40;0.20;;;;;;;15.43;100.00;100777.91;5053946;28;20537;-50
2021/09/06 00:54:43;;;;;;;0.50;0.50;;;;;;;15.35;100.00;100777.31;5054019;28;20959;-50
2021/09/06 00:57:10;;;;;;;0.40;0.20;;;;;;;15.39;100.00;100774.47;5053981;28;20827;-50
2021/09/06 00:59:37;;;;;;;0.40;0.20;;;;;;;15.36;100.00;100776.41;5053984;28;20520;-50
2021/09/06 01:02:04;;;;;;;0.40;0.20;;;;;;;15.51;100.00;100778.47;5053767;28;20509;-51
2021/09/06 01:04:31;;;;;;;0.50;0.30;;;;;;;15.40;100.00;100776.22;5053857;28;20467;-50
2021/09/06 01:06:58;;;;;;;0.40;0.30;;;;;;;15.62;100.00;100778.03;5053842;28;20475;-47
2021/09/06 01:09:25;;;;;;;3.67;2.30;;;;;;;15.45;100.00;100778.69;5053754;28;20494;-48
2021/09/06 01:11:52;;;;;;;0.40;0.20;;;;;;;15.40;100.00;100778.03;5053784;28;20944;-47
2021/09/06 01:14:19;;;;;;;0.60;0.43;;;;;;;15.36;100.00;100777.28;5047493;28;20937;-47
2021/09/06 01:16:46;;;;;;;0.40;0.30;;;;;;;15.43;100.00;100779.72;5051852;28;20458;-47
2021/09/06 01:19:12;;;;;;;0.40;0.30;;;;;;;15.49;100.00;100785.69;5053627;28;20528;-47
2021/09/06 01:21:39;;;;;;;0.40;0.20;;;;;;;15.38;100.00;100785.25;5040015;28;20952;-49
2021/09/06 01:24:06;;;;;;;0.50;0.40;;;;;;;15.40;100.00;100781.59;5053603;28;20447;-50
2021/09/06 01:26:33;;;;;;;1.43;1.03;;;;;;;15.27;100.00;100788.38;5026902;28;20524;-49
2021/09/06 01:29:00;;;;;;;1.00;1.00;;;;;;;15.27;100.00;100788.38;5053261;28;20471;-50
2021/09/06 01:31:28;;;;;;;0.40;0.20;;;;;;;15.35;100.00;100780.00;5027385;28;20483;-50
2021/09/06 01:33:55;;;;;;;0.40;0.20;;;;;;;15.31;100.00;100778.38;5053423;28;20798;-50
2021/09/06 01:36:22;;;;;;;0.40;0.20;;;;;;;15.37;100.00;100784.38;5053221;28;20940;-49
2021/09/06 01:38:49;;;;;;;0.40;0.30;;;;;;;15.40;100.00;100786.94;5053001;28;20463;-50
2021/09/06 01:41:16;;;;;;;0.50;0.40;;;;;;;15.34;100.00;100776.44;5053063;28;20485;-50
2021/09/06 01:43:43;;;;;;;0.77;0.77;;;;;;;15.33;100.00;100780.06;5052540;28;20951;-49
2021/09/06 01:46:10;;;;;;;0.50;0.50;;;;;;;15.25;100.00;100784.00;5053150;28;20489;-50
2021/09/06 01:48:37;;;;;;;0.40;0.30;;;;;;;15.09;100.00;100783.75;5052850;28;20546;-50
2021/09/06 01:51:04;;;;;;;0.40;0.30;;;;;;;15.11;100.00;100781.88;5052921;28;20513;-50
2021/09/06 01:53:31;;;;;;;0.40;0.30;;;;;;;15.02;100.00;100777.75;5052802;28;20447;-50
2021/09/06 01:55:58;;;;;;;0.60;0.60;;;;;;;15.08;100.00;100776.66;5052840;28;20490;-50
2021/09/06 01:58:25;;;;;;;0.40;0.20;;;;;;;15.02;100.00;100772.38;5052586;28;20446;-49
2021/09/06 02:00:52;;;;;;;0.50;0.40;;;;;;;14.93;100.00;100779.91;5052787;28;20455;-50
2021/09/06 02:03:19;;;;;;;0.50;0.40;;;;;;;14.93;100.00;100780.75;5052474;28;20457;-50
2021/09/06 02:05:46;;;;;;;0.40;0.30;;;;;;;14.81;100.00;100778.59;5052581;28;20447;-51
2021/09/06 02:08:13;;;;;;;4.73;1.07;;;;;;;14.96;100.00;100786.03;5052515;28;20478;-50
2021/09/06 02:10:40;;;;;;;0.40;0.20;;;;;;;14.95;100.00;100788.75;5052708;28;20877;-49
2021/09/06 02:13:07;;;;;;;0.60;0.60;;;;;;;14.90;100.00;100791.59;5052628;28;20451;-50
2021/09/06 02:15:33;;;;;;;2.00;2.00;;;;;;;14.82;100.00;100783.88;5044758;28;20874;-50
2021/09/06 02:18:00;;;;;;;0.40;0.20;;;;;;;14.56;100.00;100791.13;5037250;28;20448;-52
2021/09/06 02:20:27;;;;;;;0.40;0.30;;;;;;;14.68;100.00;100785.34;5032558;28;20459;-52
2021/09/06 02:22:54;;;;;;;2.20;2.00;;;;;;;14.39;100.00;100776.56;5031531;28;20517;-52
2021/09/06 02:25:21;;;;;;;0.50;0.50;;;;;;;14.46;100.00;100780.75;5052550;28;20455;-52
2021/09/06 02:27:48;;;;;;;1.07;0.87;;;;;;;14.53;100.00;100784.09;5048251;28;20483;-52
2021/09/06 02:30:15;;;;;;;0.40;0.30;;;;;;;14.49;100.00;100777.97;5043068;28;20556;-51
2021/09/06 02:32:42;;;;;;;0.40;0.20;;;;;;;14.55;100.00;100774.22;5052279;28;20529;-52
2021/09/06 02:35:09;;;;;;;0.40;0.20;;;;;;;14.46;100.00;100774.53;5051871;28;20530;-52
2021/09/06 02:37:36;;;;;;;0.80;0.80;;;;;;;14.47;100.00;100777.16;5051981;28;20446;-52
2021/09/06 02:40:04;;;;;;;1.67;1.67;;;;;;;14.46;100.00;100783.44;5052534;28;20459;-52
2021/09/06 02:42:31;;;;;;;2.83;2.70;;;;;;;14.45;100.00;100783.50;5052369;28;20474;-51
2021/09/06 02:44:58;;;;;;;2.97;0.97;;;;;;;14.44;100.00;100779.06;5040756;28;20483;-52
2021/09/06 02:47:25;;;;;;;0.40;0.20;;;;;;;14.24;100.00;100782.44;5050237;28;20516;-52
2021/09/06 02:49:52;;;;;;;0.40;0.20;;;;;;;14.45;100.00;100783.50;5034114;28;20526;-52
2021/09/06 02:52:19;;;;;;;0.40;0.20;;;;;;;14.37;100.00;100794.44;5052081;28;20508;-52
2021/09/06 02:54:45;;;;;;;0.87;0.87;;;;;;;14.38;100.00;100784.59;5052272;28;20474;-52
2021/09/06 02:57:12;;;;;;;0.40;0.20;;;;;;;14.44;100.00;100795.13;5052047;28;20500;-52
2021/09/06 02:59:39;;;;;;;1.10;0.70;;;;;;;14.41;100.00;100788.06;5052146;28;20482;-52
2021/09/06 03:02:06;;;;;;;0.50;0.40;;;;;;;14.29;100.00;100788.50;5051751;28;20504;-52
2021/09/06 03:04:33;;;;;;;0.40;0.20;;;;;;;14.26;100.00;100793.09;5051823;28;20993;-52
2021/09/06 03:07:00;;;;;;;0.47;0.40;;;;;;;14.17;100.00;100788.94;5052137;28;20497;-52
2021/09/06 03:09:27;;;;;;;0.40;0.20;;;;;;;14.23;100.00;100789.56;5051939;28;20521;-52
2021/09/06 03:11:54;;;;;;;0.50;0.40;;;;;;;14.26;100.00;100791.28;5051890;28;20451;-52
2021/09/06 03:14:21;;;;;;;0.70;0.50;;;;;;;14.27;100.00;100792.16;5045432;28;20447;-52
2021/09/06 03:16:48;;;;;;;0.40;0.30;;;;;;;14.32;100.00;100796.41;5051130;28;20901;-52
2021/09/06 03:19:15;;;;;;;1.37;0.60;;;;;;;14.28;100.00;100797.44;5051432;28;20509;-52
2021/09/06 03:21:42;;;;;;;1.17;0.50;;;;;;;14.17;100.00;100792.47;5032195;28;20476;-51
2021/09/06 03:24:09;;;;;;;0.40;0.30;;;;;;;14.29;100.00;100796.53;5045571;28;20481;-52
2021/09/06 03:26:36;;;;;;;0.40;0.30;;;;;;;14.17;100.00;100791.59;5051286;28;20486;-51
2021/09/06 03:29:04;;;;;;;0.40;0.30;;;;;;;14.22;100.00;100785.16;5051541;28;20475;-52
2021/09/06 03:31:32;;;;;;;0.50;0.50;;;;;;;14.30;100.00;100792.03;5051610;28;20854;-52
2021/09/06 03:34:00;;;;;;;0.40;0.30;;;;;;;14.35;100.00;100790.94;5051831;28;20801;-52
2021/09/06 03:36:27;;;;;;;0.60;0.60;;;;;;;14.22;100.00;100792.31;5044127;28;20502;-52
2021/09/06 03:38:55;;;;;;;1.80;1.70;;;;;;;14.27;100.00;100789.50;5046648;28;20498;-52
2021/09/06 03:41:23;;;;;;;0.40;0.40;;;;;;;14.36;100.00;100792.69;5033931;28;20504;-52
2021/09/06 03:43:50;;;;;;;0.40;0.20;;;;;;;14.51;100.00;100788.59;5049141;28;20862;-52
2021/09/06 03:46:17;;;;;;;0.40;0.30;;;;;;;14.46;100.00;100788.78;5031774;28;20448;-52
2021/09/06 03:48:44;;;;;;;1.70;0.97;;;;;;;14.58;100.00;100789.28;5051382;28;20577;-52
2021/09/06 03:51:11;;;;;;;0.40;0.20;;;;;;;14.68;100.00;100788.00;5055187;28;20533;-51
2021/09/06 03:53:38;;;;;;;0.40;0.40;;;;;;;14.56;100.00;100785.78;5055118;28;20482;-52
2021/09/06 03:56:09;;;;;;;11.63;1.60;;;;;;;14.56;100.00;100786.66;5055241;28;20936;-52
2021/09/06 03:58:36;;;;;;;0.40;0.40;;;;;;;14.66;100.00;100788.03;5054820;28;20493;-52
2021/09/06 04:01:03;;;;;;;0.40;0.20;;;;;;;14.63;100.00;100787.28;5055040;28;20439;-52
2021/09/06 04:03:30;;;;;;;0.63;0.63;;;;;;;14.56;100.00;100792.00;5054887;28;20450;-51
2021/09/06 04:05:57;;;;;;;0.40;0.20;;;;;;;14.64;100.00;100794.38;5055250;28;20831;-52
2021/09/06 04:08:25;;;;;;;0.40;0.40;;;;;;;14.49;100.00;100791.34;5054725;28;20446;-52
2021/09/06 04:10:53;;;;;;;1.37;1.37;;;;;;;14.41;100.00;100782.72;5054880;28;20498;-52
2021/09/06 04:13:20;;;;;;;0.40;0.40;;;;;;;14.42;100.00;100789.81;5054620;28;20446;-52
2021/09/06 04:15:47;;;;;;;1.43;0.77;;;;;;;14.39;100.00;100787.25;5047405;28;20478;-52
2021/09/06 04:18:15;;;;;;;1.60;0.73;;;;;;;14.38;100.00;100792.63;5054550;28;20939;-52
2021/09/06 04:20:43;;;;;;;0.50;0.40;;;;;;;14.39;100.00;100794.38;5042568;28;20491;-49
2021/09/06 04:23:10;;;;;;;0.87;0.87;;;;;;;14.28;100.00;100796.59;5053519;28;20451;-49
2021/09/06 04:25:37;;;;;;;0.40;0.20;;;;;;;14.21;100.00;100786.09;5054583;28;20504;-52
2021/09/06 04:28:04;;;;;;;2.10;2.10;;;;;;;14.33;100.00;100797.28;5036364;28;20459;-51
2021/09/06 04:30:31;;;;;;;0.40;0.40;;;;;;;14.12;100.00;100797.13;5054644;28;20490;-52
2021/09/06 04:32:58;;;;;;;0.70;0.70;;;;;;;14.07;100.00;100806.22;5054300;28;20482;-52
2021/09/06 04:35:25;;;;;;;0.40;0.30;;;;;;;14.08;100.00;100803.47;5054533;28;20490;-52
2021/09/06 04:37:52;;;;;;;3.70;3.47;;;;;;;14.11;100.00;100808.72;5054385;28;20451;-52
2021/09/06 04:40:19;;;;;;;1.60;1.50;;;;;;;13.99;100.00;100811.84;5054287;28;20505;-52
2021/09/06 04:42:46;;;;;;;1.60;0.67;;;;;;;14.06;100.00;100812.50;5054966;28;20881;-51
2021/09/06 04:45:13;;;;;;;0.40;0.20;;;;;;;13.98;100.00;100822.56;5053572;28;20459;-51
2021/09/06 04:47:40;;;;;;;1.20;1.20;;;;;;;13.98;100.00;100820.78;5054077;28;20447;-51
2021/09/06 04:50:07;;;;;;;0.40;0.30;;;;;;;13.96;100.00;100824.41;5040694;28;20475;-51
2021/09/06 04:52:34;;;;;;;0.53;0.47;;;;;;;13.97;100.00;100821.69;5041461;28;20478;-51
2021/09/06 04:55:01;;;;;;;0.40;0.30;;;;;;;13.89;100.00;100832.66;5054211;28;20455;-51
2021/09/06 04:57:28;;;;;;;0.40;0.20;;;;;;;13.78;100.00;100833.94;5027017;28;20523;-52
2021/09/06 04:59:55;;;;;;;0.40;0.20;;;;;;;13.76;100.00;100836.66;5060616;22;20500;-52
2021/09/06 05:02:22;;;;;;;0.40;0.20;;;;;;;13.82;100.00;100840.91;5027715;28;20866;-52
2021/09/06 05:04:49;;;;;;;0.47;0.40;;;;;;;13.84;100.00;100837.28;5054030;28;20455;-52
2021/09/06 05:07:16;;;;;;;1.27;1.27;;;;;;;13.91;100.00;100837.94;5036252;28;20537;-51
2021/09/06 05:09:43;;;;;;;0.40;0.20;;;;;;;13.83;100.00;100850.66;5053592;28;20471;-51
2021/09/06 05:12:10;;;;;;;0.40;0.20;;;;;;;13.92;100.00;100845.91;5036163;28;20540;-51
2021/09/06 05:14:37;;;;;;;0.47;0.30;;;;;;;13.94;100.00;100845.84;5028231;28;20452;-51
2021/09/06 05:17:04;;;;;;;0.83;0.83;;;;;;;14.13;100.00;100852.34;5053810;28;20497;-51
2021/09/06 05:19:31;;;;;;;0.40;0.20;;;;;;;14.44;100.00;100851.31;5033686;28;20502;-51
2021/09/06 05:21:58;;;;;;;0.40;0.20;;;;;;;14.78;100.00;100857.16;5042748;28;20513;-52
2021/09/06 05:24:25;;;;;;;0.40;0.30;;;;;;;14.95;100.00;100858.38;5053695;28;20486;-51
2021/09/06 05:26:52;;;;;;;4.53;0.60;;;;;;;15.17;100.00;100858.41;5053264;28;20970;-51
2021/09/06 05:29:18;;;;;;;0.40;0.20;;;;;;;15.11;100.00;100848.81;5053540;28;20478;-52
2021/09/06 05:31:45;;;;;;;1.33;0.90;;;;;;;15.22;100.00;100854.66;5053372;28;20837;-52
2021/09/06 05:34:12;;;;;;;0.97;0.97;;;;;;;15.29;100.00;100855.25;5053561;28;20936;-52
2021/09/06 05:36:39;;;;;;;1.13;1.13;;;;;;;15.41;100.00;100846.75;5053362;28;20474;-52
2021/09/06 05:39:06;;;;;;;1.50;1.00;;;;;;;15.35;100.00;100847.88;5053014;28;20458;-51
2021/09/06 05:41:34;;;;;;;0.40;0.20;;;;;;;15.38;100.00;100852.22;5052992;28;20497;-51
2021/09/06 05:44:05;;;;;;;0.60;0.40;;;;;;;15.29;100.00;100864.16;5035070;28;20471;-52
2021/09/06 05:46:32;;;;;;;0.60;0.60;;;;;;;15.22;100.00;100867.16;5053008;28;20940;-52
2021/09/06 05:48:59;;;;;;;0.40;0.20;;;;;;;14.98;100.00;100866.28;5053136;28;20469;-52
2021/09/06 05:51:26;;;;;;;0.40;0.30;;;;;;;14.92;100.00;100872.72;5035498;28;20533;-51
2021/09/06 05:53:53;;;;;;;0.40;0.40;;;;;;;15.00;100.00;100875.13;5052751;28;21002;-52
2021/09/06 05:56:20;;;;;;;0.40;0.30;;;;;;;14.86;100.00;100878.31;5035379;28;20475;-52
2021/09/06 05:58:48;;;;;;;0.40;0.20;;;;;;;14.89;100.00;100886.22;5052916;28;20517;-53
2021/09/06 06:01:15;;;;;;;0.40;0.20;;;;;;;14.95;100.00;100888.69;5052968;28;20454;-52
2021/09/06 06:03:42;;;;;;;0.67;0.67;;;;;;;15.04;100.00;100895.50;5052684;28;20450;-53
2021/09/06 06:06:09;;;;;;;0.97;0.97;;;;;;;15.05;100.00;100895.44;5052812;28;20971;-52
2021/09/06 06:08:36;;;;;;;0.40;0.20;;;;;;;15.13;100.00;100888.94;5052587;28;20482;-52
2021/09/06 06:11:03;;;;;;;0.80;0.80;;;;;;;15.25;100.00;100885.78;5052131;28;20533;-52
2021/09/06 06:13:30;;;;;;;0.40;0.40;;;;;;;15.33;100.00;100889.91;5052498;28;20505;-52
2021/09/06 06:15:57;;;;;;;0.73;0.73;;;;;;;15.31;100.00;100890.91;5045997;28;20489;-52
2021/09/06 06:18:31;;;;;;;0.40;0.20;;;;;;;15.38;100.00;100890.63;5027108;28;20827;-52
2021/09/06 06:20:58;;;;;;;0.57;0.57;;;;;;;15.35;100.00;100890.75;5038992;28;20492;-52
2021/09/06 06:23:25;;;;;;;0.40;0.30;;;;;;;15.31;100.00;100882.84;5052746;28;20454;-52
2021/09/06 06:25:52;;;;;;;0.40;0.20;;;;;;;15.43;100.00;100889.56;5051892;28;20454;-52
2021/09/06 06:28:19;;;;;;;7.63;1.10;;;;;;;15.57;100.00;100897.91;5052344;28;20982;-52
2021/09/06 06:30:46;;;;;;;0.40;0.20;;;;;;;15.75;100.00;100904.38;5052108;28;20568;-52
2021/09/06 06:33:13;;;;;;;0.40;0.20;;;;;;;15.93;100.00;100900.97;5052695;28;20451;-52
2021/09/06 06:35:40;;;;;;;0.40;0.30;;;;;;;16.19;100.00;100910.63;5052275;28;20455;-53
2021/09/06 06:38:07;;;;;;;0.67;0.67;;;;;;;16.36;100.00;100909.91;5052477;28;20505;-51
2021/09/06 06:40:35;;;;;;;0.83;0.83;;;;;;;16.23;100.00;100907.75;5052402;28;20525;-51
2021/09/06 06:43:02;;;;;;;0.40;0.30;;;;;;;16.41;100.00;100907.91;5052433;28;20447;-52
2021/09/06 06:45:29;;;;;;;2.33;0.60;;;;;;;16.53;100.00;100907.38;5051950;28;20455;-51
2021/09/06 06:47:56;;;;;;;0.90;0.90;;;;;;;16.45;100.00;100906.84;5052353;28;20485;-52
2021/09/06 06:50:24;;;;;;;0.50;0.50;;;;;;;16.50;100.00;100912.88;5052115;28;20890;-53
2021/09/06 06:52:54;;;;;;;0.40;0.40;;;;;;;16.57;100.00;100903.63;5052103;28;20896;-51
2021/09/06 06:55:21;;;;;;;0.40;0.40;;;;;;;16.64;100.00;100907.78;5052253;28;20814;-52
2021/09/06 06:57:48;;;;;;;0.50;0.40;;;;;;;16.73;100.00;100904.75;5052096;28;20536;-52
2021/09/06 07:00:16;;;;;;;0.60;0.33;;;;;;;16.81;100.00;100897.19;5051823;28;20509;-52
2021/09/06 07:02:43;;;;;;;0.40;0.20;;;;;;;16.91;100.00;100907.53;5052035;28;20497;-51
2021/09/06 07:05:11;;;;;;;0.60;0.60;;;;;;;16.84;100.00;100898.88;5051847;28;20458;-51
2021/09/06 07:07:39;;;;;;;0.70;0.70;;;;;;;16.88;100.00;100908.56;5051971;28;20469;-52
2021/09/06 07:10:07;;;;;;;0.40;0.20;;;;;;;17.05;100.00;100908.66;5051970;28;20524;-52
2021/09/06 07:12:34;;;;;;;0.40;0.30;;;;;;;17.08;100.00;100907.66;5052029;28;20520;-52
2021/09/06 07:15:01;;;;;;;0.40;0.30;;;;;;;17.09;100.00;100915.63;5045761;28;20459;-51
2021/09/06 07:17:28;;;;;;;0.40;0.30;;;;;;;17.36;100.00;100901.88;5052165;28;20442;-52
2021/09/06 07:19:55;;;;;;;1.23;1.23;;;;;;;17.44;100.00;100905.94;5046127;28;20894;-52
2021/09/06 07:22:22;;;;;;;0.77;0.77;;;;;;;17.54;100.00;100917.13;5047758;28;20446;-53
2021/09/06 07:24:49;;;;;;;0.40;0.30;;;;;;;17.53;100.00;100912.69;5055865;28;20450;-52
2021/09/06 07:27:17;;;;;;;0.40;0.30;;;;;;;18.02;100.00;100924.69;5055362;28;21025;-52
2021/09/06 07:29:43;;;;;;;0.50;0.40;;;;;;;18.33;100.00;100924.03;5055592;28;20466;-52
2021/09/06 07:32:11;;;;;;;0.60;0.60;;;;;;;18.07;100.00;100932.53;5055812;28;20520;-52
2021/09/06 07:34:38;;;;;;;0.40;0.30;;;;;;;18.57;98.63;100926.44;5055560;28;20512;-52
2021/09/06 07:37:06;;;;;;;0.40;0.20;;;;;;;18.68;98.99;100934.00;5055884;28;20951;-53
2021/09/06 07:39:35;;;;;;;0.60;0.50;;;;;;;18.95;97.39;100940.63;5055750;28;20866;-53
2021/09/06 07:42:03;;;;;;;0.40;0.20;;;;;;;19.39;96.08;100934.66;5055516;28;20451;-52
2021/09/06 07:44:31;;;;;;;0.50;0.40;;;;;;;19.48;94.69;100936.88;5055707;28;20451;-53
2021/09/06 07:46:58;;;;;;;0.73;0.73;;;;;;;19.31;94.61;100940.47;5038021;28;20446;-52
2021/09/06 07:49:25;;;;;;;0.53;0.40;;;;;;;19.30;95.11;100946.81;5055595;28;20530;-52
2021/09/06 07:51:52;;;;;;;0.50;0.30;;;;;;;19.74;94.09;100943.53;5055365;28;21060;-53
2021/09/06 07:54:21;;;;;;;0.63;0.60;;;;;;;19.76;92.18;100945.19;5037549;28;20505;-53
2021/09/06 07:56:53;;;;;;;0.40;0.30;;;;;;;19.68;93.62;100942.03;5055075;28;20485;-53
2021/09/06 07:59:21;;;;;;;0.80;0.80;;;;;;;19.65;93.04;100941.34;5055395;28;20540;-53
2021/09/06 08:01:48;;;;;;;0.43;0.30;;;;;;;20.07;92.06;100943.44;5055087;28;20492;-53
2021/09/06 08:04:15;;;;;;;0.40;0.30;;;;;;;19.96;91.96;100951.28;5055250;28;20454;-52
2021/09/06 08:06:44;;;;;;;0.50;0.40;;;;;;;20.02;91.19;100951.81;5055025;28;20515;-52
2021/09/06 08:09:12;;;;;;;1.20;1.10;;;;;;;20.34;89.58;100955.34;5037519;28;20524;-53
2021/09/06 08:11:39;;;;;;;1.77;1.67;;;;;;;20.17;89.40;100963.56;5054741;28;20490;-52
2021/09/06 08:14:06;;;;;;;0.50;0.40;;;;;;;20.47;90.07;100955.53;5050627;28;20889;-52
2021/09/06 08:16:33;;;;;;;0.40;0.20;;;;;;;20.82;89.09;100963.34;5034840;28;20512;-52
2021/09/06 08:19:00;;;;;;;0.50;0.40;;;;;;;20.78;88.62;100964.50;5054872;28;20507;-53
2021/09/06 08:21:27;;;;;;;0.60;0.60;;;;;;;20.90;88.19;100966.47;5041181;28;20435;-52
2021/09/06 08:23:54;;;;;;;0.50;0.50;;;;;;;20.94;87.20;100971.59;5055045;28;20475;-53
2021/09/06 08:26:26;;;;;;;0.70;0.50;;;;;;;21.17;87.10;100964.78;5054260;28;20459;-53
2021/09/06 08:28:53;;;;;;;0.40;0.20;;;;;;;21.24;87.10;100967.97;5054829;28;20455;-53
2021/09/06 08:31:20;;;;;;;0.40;0.30;;;;;;;20.98;88.17;100973.16;5054406;28;20530;-54
2021/09/06 08:33:47;;;;;;;0.40;0.30;;;;;;;21.37;86.46;100965.38;5036182;28;20534;-52
2021/09/06 08:36:14;;;;;;;1.60;0.50;;;;;;;21.06;86.48;100964.56;5054356;28;20451;-52
2021/09/06 08:38:41;;;;;;;0.40;0.30;;;;;;;21.28;87.28;100967.72;5037032;28;20500;-52
2021/09/06 08:41:08;;;;;;;0.50;0.30;;;;;;;21.49;87.69;100967.34;5054161;28;20516;-53
2021/09/06 08:43:36;;;;;;;1.37;0.63;;;;;;;21.66;86.01;100969.00;5054317;28;20490;-53
2021/09/06 08:46:03;;;;;;;0.40;0.20;;;;;;;21.61;85.76;100977.38;5054565;28;20504;-53
2021/09/06 08:48:30;;;;;;;0.40;0.20;;;;;;;22.12;84.73;100970.47;5054505;28;20458;-53
2021/09/06 08:50:58;;;;;;;1.07;1.07;;;;;;;22.10;84.51;100975.13;5054197;28;20525;-53
2021/09/06 08:53:25;;;;;;;5.00;0.60;;;;;;;22.30;83.96;100965.66;5036611;28;20480;-53
2021/09/06 08:55:54;;;;;;;0.77;0.37;;;;;;;22.05;84.12;100974.53;5036864;28;20475;-53
2021/09/06 08:58:41;;;;;;;0.60;0.40;;;;;;;22.12;83.77;100975.91;5053857;28;20446;-53
2021/09/06 09:01:08;;;;;;;0.73;0.70;;;;;;;22.61;82.92;100971.72;5054381;28;20990;-53
2021/09/06 09:03:35;;;;;;;7.47;0.90;;;;;;;22.56;83.43;100972.06;5053900;28;20542;-52
2021/09/06 09:06:06;;;;;;;1.97;1.90;;;;;;;22.30;83.27;100968.38;5054147;28;20458;-52
2021/09/06 09:08:33;;;;;;;5.17;1.57;;;;;;;22.33;83.09;100975.44;5053815;28;20889;-53
2021/09/06 09:11:06;;;;;;;1.47;1.10;;;;;;;22.37;84.11;100964.31;5053996;28;20463;-53
2021/09/06 09:13:40;;;;;;;0.87;0.87;;;;;;;23.01;82.08;100972.63;5053696;28;20458;-53
2021/09/06 09:16:08;;;;;;;0.67;0.67;;;;;;;23.20;80.58;100955.94;5039791;28;20532;-54
2021/09/06 09:18:36;;;;;;;0.50;0.40;;;;;;;23.11;81.17;100951.16;5053863;28;20454;-53
2021/09/06 09:21:11;;;;;;;4.10;0.67;;;;;;;23.32;80.95;100960.50;5040358;28;20503;-53
2021/09/06 09:23:48;;;;;;;1.27;1.03;;;;;;;23.66;80.15;100950.81;5053873;28;20465;-52
2021/09/06 09:26:15;;;;;;;1.00;0.60;;;;;;;23.19;79.99;100954.19;5053054;28;20482;-52
2021/09/06 09:28:45;;;;;;;0.63;0.60;;;;;;;23.29;80.06;100956.13;5053827;28;20872;-53
2021/09/06 09:31:17;;;;;;;0.60;0.60;;;;;;;23.42;79.85;100957.97;5035803;28;20495;-53
2021/09/06 09:33:55;;;;;;;3.40;2.10;;;;;;;23.52;79.70;100964.50;5053464;28;21053;-53
2021/09/06 09:36:32;;;;;;;2.10;2.00;;;;;;;23.72;79.24;100960.38;5053323;28;20447;-53
2021/09/06 09:39:11;;;;;;;1.10;1.10;;;;;;;23.84;79.02;100952.19;5053237;28;20475;-52
2021/09/06 09:41:41;;;;;;;2.30;0.83;;;;;;;24.07;77.99;100950.50;5035797;28;20435;-53
2021/09/06 09:44:20;;;;;;;0.83;0.80;;;;;;;23.84;78.92;100954.03;5052167;28;20963;-53
2021/09/06 09:46:57;;;;;;;1.30;1.20;;;;;;;23.84;77.85;100948.59;5053099;28;20510;-53
2021/09/06 09:49:26;;;;;;;0.60;0.60;;;;;;;24.43;77.28;100944.19;5028552;28;20520;-53
2021/09/06 09:51:53;;;;;;;1.30;1.20;;;;;;;24.66;76.57;100946.97;5052859;28;21121;-53
2021/09/06 09:54:23;;;;;;;0.50;0.30;;;;;;;24.55;76.16;100941.53;5053104;28;20452;-53
2021/09/06 09:56:50;;;;;;;1.90;1.73;;;;;;;24.38;76.57;100951.81;5052777;28;21001;-53
2021/09/06 09:59:18;;;;;;;1.70;0.93;;;;;;;24.86;75.85;100950.91;5053114;28;20554;-53
2021/09/06 10:01:56;;;;;;;3.13;2.83;;;;;;;25.04;74.24;100953.06;5034942;28;20488;-53
2021/09/06 10:04:30;;;;;;;10.00;1.23;;;;;;;25.03;74.54;100947.75;5052937;28;20447;-53
2021/09/06 10:06:58;;;;;;;2.53;1.13;;;;;;;25.14;73.47;100939.63;5052936;28;20493;-52
2021/09/06 10:09:25;;;;;;;0.50;0.30;;;;;;;25.26;73.64;100933.19;5052603;28;20980;-53
2021/09/06 10:11:52;;;;;;;1.10;1.10;;;;;;;25.31;72.73;100940.97;5052688;28;20912;-53
2021/09/06 10:14:26;;;;;;;1.00;1.00;;;;;;;25.58;72.11;100940.63;5046487;28;20981;-51
2021/09/06 10:17:07;;;;;;;1.37;1.37;;;;;;;25.76;72.10;100938.28;5027556;28;20444;-51
2021/09/06 10:19:42;;;;;;;2.07;1.87;;;;;;;25.64;70.35;100930.13;5032479;28;20470;-51
2021/09/06 10:22:23;;;;;;;5.90;3.57;;;;;;;25.78;69.50;100931.75;5042938;28;20492;-52
2021/09/06 10:25:06;;;;;;;1.23;1.23;;;;;;;25.56;68.63;100931.72;5052500;28;20961;-51
2021/09/06 10:27:49;;;;;;;0.50;0.30;;;;;;;25.60;67.59;100931.34;5051938;28;20529;-51
2021/09/06 10:30:16;;;;;;;0.60;0.60;;;;;;;25.36;68.66;100925.16;5052540;28;20467;-51
2021/09/06 10:32:46;;;;;;;0.73;0.67;;;;;;;25.53;67.81;100921.94;5034286;28;20925;-51
2021/09/06 10:35:22;;;;;;;0.93;0.90;;;;;;;25.47;67.01;100935.19;5052292;28;20512;-52
2021/09/06 10:38:08;;;;;;;0.57;0.50;;;;;;;25.89;67.14;100930.84;5052484;28;20443;-51
2021/09/06 10:40:38;;;;;;;0.50;0.30;;;;;;;26.16;66.62;100934.00;5052082;28;20453;-51
2021/09/06 10:43:40;;;;;;;0.97;0.97;;;;;;;26.38;66.73;100927.66;5052294;28;20501;-51
2021/09/06 10:46:08;;;;;;;0.50;0.40;;;;;;;26.09;66.32;100929.19;5052386;28;20481;-52
2021/09/06 10:48:36;;;;;;;3.70;2.20;;;;;;;26.17;65.39;100932.13;5050958;28;20516;-51
2021/09/06 10:51:04;;;;;;;0.50;0.40;;;;;;;25.67;66.81;100918.09;5032038;28;20478;-52
2021/09/06 10:53:31;;;;;;;0.47;0.33;;;;;;;25.97;66.99;100923.78;5047248;28;20486;-51
2021/09/06 10:55:59;;;;;;;0.67;0.40;;;;;;;26.16;65.45;100922.22;5051785;28;20993;-51
2021/09/06 10:58:28;;;;;;;1.57;1.47;;;;;;;25.83;65.01;100920.47;5034482;28;20429;-52
2021/09/06 11:00:59;;;;;;;0.60;0.50;;;;;;;26.12;64.95;100918.91;5060973;22;20537;-58
2021/09/06 11:03:35;;;;;;;1.00;0.90;;;;;;;26.27;64.60;100917.59;5051961;28;20515;-58
2021/09/06 11:06:03;;;;;;;3.47;1.60;;;;;;;26.52;63.13;100926.47;5052380;28;20425;-58
2021/09/06 11:08:36;;;;;;;1.23;1.13;;;;;;;26.66;62.73;100909.78;5052120;28;20447;-58
2021/09/06 11:11:08;;;;;;;0.50;0.40;;;;;;;26.99;61.79;100914.19;5052008;28;20819;-58
2021/09/06 11:13:41;;;;;;;0.40;0.30;;;;;;;26.79;61.03;100915.94;5051905;28;20464;-58
2021/09/06 11:16:10;;;;;;;0.50;0.37;;;;;;;27.02;61.38;100913.09;5045975;28;20850;-58
2021/09/06 11:18:40;;;;;;;0.67;0.67;;;;;;;26.80;61.13;100911.34;5052213;28;20448;-58
2021/09/06 11:21:07;;;;;;;0.67;0.67;;;;;;;27.00;60.98;100906.84;5038641;28;20442;-58
2021/09/06 11:23:40;;;;;;;1.23;1.13;;;;;;;27.05;59.84;100905.50;5052021;28;20811;-57